Chessington, United Kingdom
Current Conditions -  °F | °C
As of 10:20 AM on Sunday 25 Jan 2015 (Local Time) from EGLL Reporting Station
Broken Clouds Broken Clouds  
Wind Chill:   Ceiling: 3500
Heat Index:   Visibility: 6mi
Dew Point:   Wind: 6mph
Humidity: 87%   Direction: 230°SW
Pressure: 30.45"   Gusts: NA
Location:  51.37°N, 0.3°W
Report Text: EGLL 251020Z 23005KT 180V320 9999 BKN035 04/02 Q1031 NOSIG
Loading
Personal Weather Stations






























Interactive Weather Map New forecast layout! Learn more

10-Day Weather Forecast

Advertisements
Track Severe Weather on mobile